Time;durP1;ratioP1;P1;durP2;ratioP2;P2;SDS_P1;SDS_P2;PMS_P1;PMS_P2;Temp;Humidity;BMP_temperature;BMP_pressure;BME280_temperature;BME280_humidity;BME280_pressure;Samples;Min_cycle;Max_cycle;Signal;HPM_P1;HPM_P2
2022/03/14 00:01:29;;;;;;;18.73;13.60;;;;;;;;;;5114658;28;20298;-73
2022/03/14 00:03:58;;;;;;;17.00;13.23;;;;;;;;;;5114289;28;20212;-73
2022/03/14 00:06:26;;;;;;;19.40;13.13;;;;;;;;;;5114620;28;20252;-73
2022/03/14 00:08:54;;;;;;;16.87;13.20;;;;;;;;;;5113841;28;20677;-73
2022/03/14 00:11:22;;;;;;;16.43;13.10;;;;;;;;;;5114344;28;20215;-73
2022/03/14 00:13:50;;;;;;;17.40;12.77;;;;;;;;;;5114537;28;20207;-73
2022/03/14 00:16:24;;;;;;;20.20;13.63;;;;;;;;;;5114313;28;20230;-73
2022/03/14 00:18:53;;;;;;;19.07;14.60;;;;;;;;;;5113577;28;20199;-73
2022/03/14 00:21:23;;;;;;;20.20;14.23;;;;;;;;;;5113392;28;20238;-73
2022/03/14 00:23:50;;;;;;;17.83;13.70;;;;;;;;;;5114347;28;20207;-73
2022/03/14 00:26:18;;;;;;;19.27;14.80;;;;;;;;;;5113708;28;20290;-73
2022/03/14 00:28:45;;;;;;;18.30;14.90;;;;;;;;;;5113543;28;20235;-73
2022/03/14 00:31:12;;;;;;;18.17;14.23;;;;;;;;;;5113808;28;20226;-73
2022/03/14 00:33:41;;;;;;;19.53;14.10;;;;;;;;;;5113579;28;20217;-73
2022/03/14 00:36:08;;;;;;;17.57;13.80;;;;;;;;;;5113616;28;20242;-73
2022/03/14 00:38:36;;;;;;;19.27;14.33;;;;;;;;;;5113210;28;20210;-73
2022/03/14 00:41:03;;;;;;;18.40;13.83;;;;;;;;;;5113818;28;20198;-73
2022/03/14 00:43:31;;;;;;;17.47;13.27;;;;;;;;;;5114106;28;20213;-75
2022/03/14 00:45:58;;;;;;;15.77;13.10;;;;;;;;;;5115445;28;20227;-73
2022/03/14 00:48:25;;;;;;;15.60;12.83;;;;;;;;;;5113679;28;20235;-73
2022/03/14 00:50:54;;;;;;;17.07;13.43;;;;;;;;;;5113678;28;20310;-73
2022/03/14 00:53:21;;;;;;;16.73;12.77;;;;;;;;;;5113436;28;20234;-73
2022/03/14 00:55:48;;;;;;;20.50;14.90;;;;;;;;;;5113230;28;20321;-73
2022/03/14 00:58:16;;;;;;;17.00;13.40;;;;;;;;;;5112431;28;20286;-73
2022/03/14 01:00:43;;;;;;;16.67;12.67;;;;;;;;;;5113165;28;20209;-73
2022/03/14 01:03:10;;;;;;;16.03;12.20;;;;;;;;;;5113017;28;20200;-73
2022/03/14 01:05:37;;;;;;;17.67;13.10;;;;;;;;;;5112964;28;20234;-73
2022/03/14 01:08:08;;;;;;;17.03;13.20;;;;;;;;;;5112343;28;20355;-73
2022/03/14 01:10:35;;;;;;;18.63;13.63;;;;;;;;;;5107331;28;20242;-73
2022/03/14 01:13:03;;;;;;;18.30;12.70;;;;;;;;;;5113377;28;20191;-73
2022/03/14 01:15:31;;;;;;;15.63;12.90;;;;;;;;;;5112876;28;20410;-73
2022/03/14 01:17:59;;;;;;;16.37;13.03;;;;;;;;;;5111965;28;20195;-73
2022/03/14 01:20:26;;;;;;;18.50;14.03;;;;;;;;;;5112888;28;20199;-73
2022/03/14 01:22:55;;;;;;;21.00;13.60;;;;;;;;;;5112543;28;20206;-73
2022/03/14 01:25:24;;;;;;;16.53;13.37;;;;;;;;;;5106646;28;20288;-73
2022/03/14 01:27:51;;;;;;;16.83;13.43;;;;;;;;;;5111651;28;20195;-73
2022/03/14 01:30:19;;;;;;;19.97;14.03;;;;;;;;;;5112839;28;20227;-73
2022/03/14 01:32:46;;;;;;;17.43;14.27;;;;;;;;;;5112526;28;20294;-73
2022/03/14 01:35:13;;;;;;;16.40;14.00;;;;;;;;;;5106380;28;20223;-73
2022/03/14 01:37:41;;;;;;;14.17;12.70;;;;;;;;;;5105431;28;20191;-73
2022/03/14 01:40:09;;;;;;;15.90;13.17;;;;;;;;;;5106077;28;20206;-73
2022/03/14 01:42:38;;;;;;;15.27;12.27;;;;;;;;;;5105978;28;20238;-73
2022/03/14 01:45:06;;;;;;;14.13;12.33;;;;;;;;;;5106036;28;20318;-73
2022/03/14 01:47:34;;;;;;;13.90;11.93;;;;;;;;;;5105216;28;20203;-73
2022/03/14 01:50:01;;;;;;;15.53;12.67;;;;;;;;;;5105492;28;20226;-73
2022/03/14 01:52:29;;;;;;;14.30;12.67;;;;;;;;;;5112377;28;20272;-75
2022/03/14 01:54:56;;;;;;;14.00;12.60;;;;;;;;;;5112187;28;20227;-74
2022/03/14 01:57:23;;;;;;;17.03;12.43;;;;;;;;;;5112179;28;20201;-73
2022/03/14 01:59:52;;;;;;;15.13;13.00;;;;;;;;;;5112579;28;20203;-73
2022/03/14 02:02:20;;;;;;;12.13;10.80;;;;;;;;;;5111926;28;20195;-73
2022/03/14 02:04:47;;;;;;;12.63;10.90;;;;;;;;;;5112068;28;20314;-74
2022/03/14 02:07:14;;;;;;;13.97;11.67;;;;;;;;;;5111118;28;20202;-74
2022/03/14 02:09:42;;;;;;;12.90;11.47;;;;;;;;;;5112805;28;20290;-74
2022/03/14 02:12:10;;;;;;;12.27;10.90;;;;;;;;;;5112074;28;20274;-74
2022/03/14 02:14:39;;;;;;;13.30;11.43;;;;;;;;;;5112269;28;20246;-73
2022/03/14 02:17:08;;;;;;;14.50;11.80;;;;;;;;;;5111063;28;20260;-73
2022/03/14 02:19:36;;;;;;;13.07;11.67;;;;;;;;;;5112209;28;20282;-73
2022/03/14 02:22:09;;;;;;;15.70;13.10;;;;;;;;;;5112050;28;20274;-73
2022/03/14 02:24:36;;;;;;;11.63;10.10;;;;;;;;;;5105403;28;20248;-73
2022/03/14 02:27:04;;;;;;;11.87;10.67;;;;;;;;;;5111484;28;20219;-73
2022/03/14 02:29:32;;;;;;;11.50;10.30;;;;;;;;;;5112036;28;20752;-73
2022/03/14 02:31:59;;;;;;;10.77;9.67;;;;;;;;;;5111903;28;20223;-73
2022/03/14 02:34:26;;;;;;;10.70;9.60;;;;;;;;;;5111967;28;20222;-73
2022/03/14 02:36:54;;;;;;;10.10;9.00;;;;;;;;;;5105018;28;20203;-73
2022/03/14 02:39:23;;;;;;;8.93;8.10;;;;;;;;;;5105494;28;20199;-73
2022/03/14 02:41:50;;;;;;;8.50;7.50;;;;;;;;;;5110806;28;20199;-73
2022/03/14 02:44:17;;;;;;;7.10;6.40;;;;;;;;;;5111422;28;20310;-74
2022/03/14 02:46:44;;;;;;;5.37;4.83;;;;;;;;;;5115381;28;20234;-73
2022/03/14 02:49:12;;;;;;;4.83;4.30;;;;;;;;;;5115583;28;20209;-74
2022/03/14 02:51:41;;;;;;;4.83;4.33;;;;;;;;;;5115681;28;20314;-73
2022/03/14 02:54:08;;;;;;;4.33;3.93;;;;;;;;;;5115658;28;20199;-73
2022/03/14 02:56:37;;;;;;;4.17;3.77;;;;;;;;;;5115190;28;20245;-73
2022/03/14 02:59:06;;;;;;;5.80;4.67;;;;;;;;;;5115374;28;20195;-73
2022/03/14 03:01:33;;;;;;;5.33;4.13;;;;;;;;;;5115676;28;20230;-73
2022/03/14 03:04:00;;;;;;;4.03;3.63;;;;;;;;;;5115805;28;20206;-73
2022/03/14 03:06:27;;;;;;;4.77;4.37;;;;;;;;;;5115820;28;20222;-73
2022/03/14 03:08:55;;;;;;;5.17;4.33;;;;;;;;;;5114991;28;20311;-73
2022/03/14 03:11:23;;;;;;;6.97;5.60;;;;;;;;;;5115332;28;20218;-73
2022/03/14 03:13:56;;;;;;;8.00;5.70;;;;;;;;;;5115657;28;20591;-73
2022/03/14 03:16:23;;;;;;;7.53;5.63;;;;;;;;;;5118319;28;20297;-73
2022/03/14 03:18:50;;;;;;;7.07;5.97;;;;;;;;;;5122327;28;20203;-73
2022/03/14 03:21:17;;;;;;;7.50;6.67;;;;;;;;;;5111620;28;20201;-73
2022/03/14 03:23:45;;;;;;;8.47;6.57;;;;;;;;;;5110182;28;20263;-73
2022/03/14 03:26:12;;;;;;;8.97;6.63;;;;;;;;;;5113065;28;20229;-73
2022/03/14 03:28:39;;;;;;;10.73;6.60;;;;;;;;;;5114634;28;20286;-73
2022/03/14 03:31:10;;;;;;;9.83;6.83;;;;;;;;;;5108781;28;20711;-73
2022/03/14 03:33:38;;;;;;;9.37;7.13;;;;;;;;;;5109345;28;20207;-73
2022/03/14 03:36:05;;;;;;;9.37;7.20;;;;;;;;;;5114712;28;20227;-73
2022/03/14 03:38:33;;;;;;;9.47;7.37;;;;;;;;;;5114326;28;20210;-73
2022/03/14 03:41:00;;;;;;;12.20;7.90;;;;;;;;;;5108675;28;20245;-73
2022/03/14 03:43:27;;;;;;;9.80;7.63;;;;;;;;;;5114605;28;20199;-73
2022/03/14 03:45:54;;;;;;;10.00;7.50;;;;;;;;;;5115189;28;20231;-73
2022/03/14 03:48:23;;;;;;;11.30;7.97;;;;;;;;;;5113991;28;20215;-73
2022/03/14 03:50:50;;;;;;;12.70;7.70;;;;;;;;;;5114348;28;20218;-73
2022/03/14 03:53:18;;;;;;;12.53;7.80;;;;;;;;;;5114578;28;20199;-73
2022/03/14 03:55:45;;;;;;;11.73;8.50;;;;;;;;;;5113792;28;20286;-73
2022/03/14 03:58:12;;;;;;;12.40;8.67;;;;;;;;;;5113605;28;20209;-73
2022/03/14 04:00:39;;;;;;;11.83;8.30;;;;;;;;;;5114654;28;20198;-73
2022/03/14 04:03:07;;;;;;;12.23;8.40;;;;;;;;;;5114333;28;20195;-73
2022/03/14 04:05:39;;;;;;;14.33;8.30;;;;;;;;;;5113859;28;20237;-73
2022/03/14 04:08:10;;;;;;;14.27;8.70;;;;;;;;;;5113207;28;20210;-73
2022/03/14 04:10:41;;;;;;;15.33;8.17;;;;;;;;;;5114407;28;20271;-73
2022/03/14 04:13:09;;;;;;;14.80;8.33;;;;;;;;;;5114346;28;20199;-73
2022/03/14 04:15:51;;;;;;;13.23;8.30;;;;;;;;;;5107575;28;20223;-73
2022/03/14 04:18:18;;;;;;;12.87;8.23;;;;;;;;;;5113139;28;20203;-73
2022/03/14 04:20:48;;;;;;;11.83;8.40;;;;;;;;;;5114086;28;20224;-73
2022/03/14 04:23:17;;;;;;;15.23;9.43;;;;;;;;;;5114219;28;20677;-73
2022/03/14 04:25:53;;;;;;;15.90;9.10;;;;;;;;;;5113828;28;20317;-73
2022/03/14 04:28:20;;;;;;;12.77;9.43;;;;;;;;;;5113119;28;20253;-73
2022/03/14 04:30:48;;;;;;;15.00;9.40;;;;;;;;;;5113806;28;20290;-73
2022/03/14 04:33:15;;;;;;;15.93;9.70;;;;;;;;;;5113783;28;20203;-73
2022/03/14 04:35:42;;;;;;;12.83;9.57;;;;;;;;;;5113616;28;20227;-73
2022/03/14 04:38:11;;;;;;;17.13;10.10;;;;;;;;;;5112792;28;20252;-73
2022/03/14 04:40:40;;;;;;;15.83;10.03;;;;;;;;;;5114088;28;20212;-73
2022/03/14 04:43:08;;;;;;;16.30;10.80;;;;;;;;;;5113114;28;20195;-73
2022/03/14 04:45:36;;;;;;;20.37;11.13;;;;;;;;;;5109813;28;20215;-73
2022/03/14 04:48:04;;;;;;;15.70;10.43;;;;;;;;;;5112540;28;20282;-73
2022/03/14 04:50:31;;;;;;;19.23;11.30;;;;;;;;;;5113541;28;20203;-73
2022/03/14 04:52:59;;;;;;;18.30;11.07;;;;;;;;;;5113150;28;20287;-75
2022/03/14 04:55:29;;;;;;;19.67;11.30;;;;;;;;;;5114111;28;20219;-74
2022/03/14 04:57:57;;;;;;;20.27;11.07;;;;;;;;;;5112226;28;20203;-74
2022/03/14 05:00:24;;;;;;;19.40;10.87;;;;;;;;;;5113674;28;20202;-74
2022/03/14 05:02:51;;;;;;;19.03;10.57;;;;;;;;;;5113105;28;20201;-74
2022/03/14 05:05:18;;;;;;;19.67;12.13;;;;;;;;;;5113559;28;20223;-75
2022/03/14 05:07:46;;;;;;;23.17;11.97;;;;;;;;;;5111142;28;20195;-74
2022/03/14 05:10:13;;;;;;;22.60;12.50;;;;;;;;;;5113103;28;20226;-74
2022/03/14 05:12:41;;;;;;;22.00;12.10;;;;;;;;;;5112499;28;20240;-74
2022/03/14 05:15:09;;;;;;;20.63;11.30;;;;;;;;;;5112855;28;20231;-74
2022/03/14 05:17:36;;;;;;;21.77;12.37;;;;;;;;;;5112280;28;20199;-74
2022/03/14 05:20:04;;;;;;;24.77;12.93;;;;;;;;;;5107284;28;20242;-74
2022/03/14 05:22:32;;;;;;;22.93;12.73;;;;;;;;;;5110169;28;20195;-74
2022/03/14 05:24:59;;;;;;;22.60;11.90;;;;;;;;;;5113022;28;20231;-74
2022/03/14 05:27:26;;;;;;;16.37;10.13;;;;;;;;;;5112112;28;20211;-74
2022/03/14 05:29:56;;;;;;;12.30;8.03;;;;;;;;;;5112829;28;20207;-74
2022/03/14 05:32:23;;;;;;;14.27;7.53;;;;;;;;;;5112605;28;20261;-73
2022/03/14 05:34:51;;;;;;;12.73;7.70;;;;;;;;;;5112755;28;20234;-74
2022/03/14 05:37:19;;;;;;;10.07;6.53;;;;;;;;;;5111840;28;20286;-74
2022/03/14 05:39:48;;;;;;;9.93;6.80;;;;;;;;;;5112691;28;20191;-74
2022/03/14 05:42:15;;;;;;;14.03;8.60;;;;;;;;;;5112604;28;20200;-74
2022/03/14 05:44:44;;;;;;;14.87;9.27;;;;;;;;;;5112350;28;20672;-74
2022/03/14 05:47:14;;;;;;;16.67;10.03;;;;;;;;;;5111827;28;20199;-74
2022/03/14 05:49:41;;;;;;;14.13;9.80;;;;;;;;;;5112456;28;20230;-74
2022/03/14 05:52:10;;;;;;;11.67;7.87;;;;;;;;;;5112430;28;20223;-73
2022/03/14 05:54:40;;;;;;;12.53;8.17;;;;;;;;;;5111836;28;20215;-73
2022/03/14 05:57:07;;;;;;;15.47;8.90;;;;;;;;;;5110651;28;20278;-74
2022/03/14 05:59:34;;;;;;;18.43;9.80;;;;;;;;;;5109278;28;20286;-74
2022/03/14 06:02:01;;;;;;;20.77;11.27;;;;;;;;;;5111792;28;20187;-74
2022/03/14 06:04:31;;;;;;;18.40;10.27;;;;;;;;;;5111253;28;20238;-74
2022/03/14 06:06:58;;;;;;;14.87;8.60;;;;;;;;;;5107264;28;20717;-74
2022/03/14 06:09:29;;;;;;;13.27;8.70;;;;;;;;;;5111820;28;20207;-74
2022/03/14 06:11:56;;;;;;;10.57;7.23;;;;;;;;;;5109581;28;20211;-73
2022/03/14 06:14:24;;;;;;;6.70;5.03;;;;;;;;;;5111382;28;20223;-74
2022/03/14 06:16:51;;;;;;;6.87;3.63;;;;;;;;;;5110665;28;20259;-74
2022/03/14 06:19:18;;;;;;;5.63;3.30;;;;;;;;;;5110706;28;20199;-74
2022/03/14 06:21:46;;;;;;;5.33;3.37;;;;;;;;;;5111682;28;20191;-74
2022/03/14 06:24:14;;;;;;;4.50;3.20;;;;;;;;;;5108281;28;20203;-73
2022/03/14 06:26:41;;;;;;;3.90;2.70;;;;;;;;;;5110913;28;20199;-73
2022/03/14 06:29:08;;;;;;;5.83;3.20;;;;;;;;;;5111072;28;20210;-74
2022/03/14 06:31:35;;;;;;;4.73;2.70;;;;;;;;;;5108911;28;20242;-74
2022/03/14 06:34:02;;;;;;;2.87;2.60;;;;;;;;;;5111175;28;20191;-74
2022/03/14 06:36:30;;;;;;;4.00;2.80;;;;;;;;;;5111137;28;20213;-74
2022/03/14 06:39:01;;;;;;;3.43;2.87;;;;;;;;;;5108320;28;20192;-73
2022/03/14 06:41:29;;;;;;;3.20;2.83;;;;;;;;;;5110742;28;20274;-74
2022/03/14 06:43:57;;;;;;;5.17;2.77;;;;;;;;;;5108347;28;20286;-74
2022/03/14 06:46:24;;;;;;;4.27;2.30;;;;;;;;;;5111398;28;20206;-74
2022/03/14 06:48:51;;;;;;;3.20;2.37;;;;;;;;;;5110133;28;20195;-74
2022/03/14 06:51:19;;;;;;;5.83;2.50;;;;;;;;;;5105336;28;20195;-74
2022/03/14 06:53:46;;;;;;;4.43;2.60;;;;;;;;;;5107244;28;20211;-74
2022/03/14 06:56:15;;;;;;;7.07;3.13;;;;;;;;;;5108238;28;20254;-73
2022/03/14 06:58:45;;;;;;;8.40;2.77;;;;;;;;;;5108364;28;20206;-76
2022/03/14 07:01:13;;;;;;;5.80;2.73;;;;;;;;;;5098821;28;20344;-76
2022/03/14 07:03:40;;;;;;;9.97;2.43;;;;;;;;;;5102152;28;20196;-76
2022/03/14 07:06:13;;;;;;;5.63;2.57;;;;;;;;;;5103414;28;20215;-76
2022/03/14 07:08:40;;;;;;;5.13;2.10;;;;;;;;;;5105053;28;20207;-76
2022/03/14 07:11:07;;;;;;;5.53;2.20;;;;;;;;;;5109272;28;20258;-76
2022/03/14 07:13:36;;;;;;;8.57;2.77;;;;;;;;;;5111746;28;20251;-76
2022/03/14 07:16:03;;;;;;;5.70;3.03;;;;;;;;;;5110445;28;20220;-78
2022/03/14 07:18:30;;;;;;;8.67;3.47;;;;;;;;;;5112107;28;20302;-75
2022/03/14 07:20:58;;;;;;;4.77;2.83;;;;;;;;;;5105123;28;20206;-75
2022/03/14 07:23:25;;;;;;;3.70;2.43;;;;;;;;;;5105752;28;20235;-75
2022/03/14 07:25:52;;;;;;;5.17;2.30;;;;;;;;;;5111349;28;20337;-75
2022/03/14 07:28:19;;;;;;;5.37;2.40;;;;;;;;;;5111011;28;20199;-76
2022/03/14 07:30:48;;;;;;;3.97;2.10;;;;;;;;;;5113572;28;20722;-75
2022/03/14 07:33:16;;;;;;;5.33;2.37;;;;;;;;;;5114468;28;20226;-76
2022/03/14 07:35:44;;;;;;;2.50;1.43;;;;;;;;;;5114862;28;20227;-76
2022/03/14 07:38:11;;;;;;;2.63;1.50;;;;;;;;;;5114670;28;20290;-77
2022/03/14 07:40:38;;;;;;;3.20;1.50;;;;;;;;;;5112432;28;20260;-78
2022/03/14 07:43:06;;;;;;;4.80;1.70;;;;;;;;;;5115860;28;20195;-77
2022/03/14 07:45:34;;;;;;;3.17;1.50;;;;;;;;;;5116900;28;20244;-79
2022/03/14 07:48:04;;;;;;;5.57;1.43;;;;;;;;;;5118021;28;20290;-79
2022/03/14 07:50:31;;;;;;;2.73;1.60;;;;;;;;;;5118223;28;20214;-77
2022/03/14 07:52:59;;;;;;;3.07;1.80;;;;;;;;;;5118392;28;20227;-77
2022/03/14 07:55:27;;;;;;;4.00;1.43;;;;;;;;;;5114428;28;20242;-77
2022/03/14 07:57:55;;;;;;;3.63;1.20;;;;;;;;;;5114281;28;20196;-77
2022/03/14 08:00:23;;;;;;;3.90;1.40;;;;;;;;;;5114458;28;20215;-77
2022/03/14 08:02:55;;;;;;;4.07;1.30;;;;;;;;;;5114314;28;20199;-77
2022/03/14 08:05:26;;;;;;;2.00;1.30;;;;;;;;;;5114098;28;20231;-77
2022/03/14 08:07:55;;;;;;;1.93;1.30;;;;;;;;;;5107525;28;20260;-77
2022/03/14 08:10:26;;;;;;;3.83;1.20;;;;;;;;;;5110302;28;20203;-77
2022/03/14 08:12:54;;;;;;;5.60;1.67;;;;;;;;;;5107896;28;20314;-78
2022/03/14 08:15:22;;;;;;;3.80;1.60;;;;;;;;;;5105550;28;20227;-77
2022/03/14 08:17:50;;;;;;;6.13;1.40;;;;;;;;;;5107038;28;20199;-78
2022/03/14 08:20:18;;;;;;;4.87;1.30;;;;;;;;;;5111956;28;20199;-78
2022/03/14 08:22:47;;;;;;;7.50;1.50;;;;;;;;;;5110832;28;20211;-77
2022/03/14 08:25:15;;;;;;;3.70;1.60;;;;;;;;;;5108286;28;20322;-77
2022/03/14 08:27:43;;;;;;;4.00;1.60;;;;;;;;;;5109183;28;20207;-77
2022/03/14 08:30:11;;;;;;;2.43;1.40;;;;;;;;;;5120041;28;20207;-77
2022/03/14 08:32:40;;;;;;;3.17;1.47;;;;;;;;;;5120564;28;20227;-78
2022/03/14 08:35:08;;;;;;;4.07;1.60;;;;;;;;;;5109301;28;20226;-77
2022/03/14 08:37:37;;;;;;;4.00;1.40;;;;;;;;;;5108586;28;20203;-79
2022/03/14 08:40:07;;;;;;;4.40;1.90;;;;;;;;;;5108701;28;20207;-77
2022/03/14 08:42:34;;;;;;;7.63;1.70;;;;;;;;;;5113949;28;20233;-77
2022/03/14 08:45:01;;;;;;;7.40;1.50;;;;;;;;;;5114914;28;20305;-77
2022/03/14 08:47:29;;;;;;;9.47;2.10;;;;;;;;;;5113711;28;20219;-77
2022/03/14 08:49:56;;;;;;;5.73;2.17;;;;;;;;;;5107788;28;20234;-77
2022/03/14 08:52:23;;;;;;;13.57;2.50;;;;;;;;;;5114468;28;20265;-77
2022/03/14 08:54:51;;;;;;;7.97;2.63;;;;;;;;;;5108233;28;20307;-77
2022/03/14 08:57:20;;;;;;;9.97;2.30;;;;;;;;;;5113834;28;20230;-77
2022/03/14 08:59:47;;;;;;;5.27;1.47;;;;;;;;;;5114957;28;20290;-78
2022/03/14 09:02:14;;;;;;;3.93;1.53;;;;;;;;;;5113297;28;20226;-77
2022/03/14 09:04:42;;;;;;;4.73;1.77;;;;;;;;;;5114189;28;20215;-78
2022/03/14 09:07:10;;;;;;;4.40;1.30;;;;;;;;;;5112965;28;20279;-77
2022/03/14 09:09:37;;;;;;;5.53;1.63;;;;;;;;;;5113097;28;20203;-77
2022/03/14 09:12:05;;;;;;;4.20;1.67;;;;;;;;;;5112828;28;20199;-77
2022/03/14 09:14:36;;;;;;;9.87;2.00;;;;;;;;;;5112821;28;20227;-77
2022/03/14 09:17:07;;;;;;;5.30;1.80;;;;;;;;;;5110268;28;20195;-79
2022/03/14 09:19:46;;;;;;;6.17;1.60;;;;;;;;;;5111112;28;20341;-78
2022/03/14 09:25:13;;;;;;;4.80;1.77;;;;;;;;;;5111335;28;20276;-79
2022/03/14 09:27:50;;;;;;;5.63;1.40;;;;;;;;;;5113159;28;20195;-79
2022/03/14 09:30:43;;;;;;;8.33;1.90;;;;;;;;;;5111109;28;20202;-78
2022/03/14 09:33:28;;;;;;;5.70;1.63;;;;;;;;;;5114505;28;20314;-83
2022/03/14 09:36:21;;;;;;;6.30;1.60;;;;;;;;;;5129814;22;20302;-79
2022/03/14 09:38:49;;;;;;;4.17;1.60;;;;;;;;;;5129932;27;20303;-78
2022/03/14 09:41:20;;;;;;;6.43;1.70;;;;;;;;;;5134865;27;20206;-78
2022/03/14 09:44:06;;;;;;;;;;;;;;;;;;;;;
2022/03/14 09:46:51;;;;;;;10.60;1.80;;;;;;;;;;5114429;28;20203;-79
2022/03/14 09:49:23;;;;;;;7.40;2.70;;;;;;;;;;5109864;28;20207;-79
2022/03/14 09:52:18;;;;;;;8.57;1.97;;;;;;;;;;5112983;28;20195;-78
2022/03/14 09:54:52;;;;;;;8.47;2.57;;;;;;;;;;5112038;28;20251;-78
2022/03/14 10:00:32;;;;;;;7.30;2.00;;;;;;;;;;5103760;28;20211;-78
2022/03/14 10:03:09;;;;;;;4.43;2.13;;;;;;;;;;5111280;28;20195;-78
2022/03/14 10:05:39;;;;;;;5.87;2.90;;;;;;;;;;5112070;28;20226;-79
2022/03/14 10:08:29;;;;;;;;;;;;;;;;;;;;;
2022/03/14 10:11:00;;;;;;;4.47;1.80;;;;;;;;;;5110337;28;20191;-78
2022/03/14 10:13:28;;;;;;;6.87;2.00;;;;;;;;;;5111905;28;20227;-78
2022/03/14 10:16:00;;;;;;;4.60;1.70;;;;;;;;;;5112371;28;20226;-78
2022/03/14 10:18:55;;;;;;;4.40;1.50;;;;;;;;;;5110982;28;20219;-78
2022/03/14 10:25:22;;;;;;;4.87;2.90;;;;;;;;;;5074378;28;20297;-78
2022/03/14 10:36:48;;;;;;;6.23;2.10;;;;;;;;;;5105908;28;20195;-78
2022/03/14 10:39:17;;;;;;;3.30;1.60;;;;;;;;;;5070402;28;20223;-78
2022/03/14 10:41:48;;;;;;;4.97;3.27;;;;;;;;;;5112870;28;20227;-78
2022/03/14 10:44:29;;;;;;;6.20;2.13;;;;;;;;;;5112563;28;20275;-81
2022/03/14 10:47:01;;;;;;;5.10;2.00;;;;;;;;;;5105779;28;20214;-78
2022/03/14 10:49:29;;;;;;;3.10;2.10;;;;;;;;;;5111695;28;20199;-78
2022/03/14 10:52:00;;;;;;;6.67;2.33;;;;;;;;;;5111714;28;20263;-78
2022/03/14 10:54:35;;;;;;;9.73;2.57;;;;;;;;;;5111800;28;20225;-78
2022/03/14 10:57:10;;;;;;;5.00;1.83;;;;;;;;;;5105666;28;20198;-78
2022/03/14 10:59:39;;;;;;;4.53;1.20;;;;;;;;;;5111996;28;20680;-78
2022/03/14 11:02:07;;;;;;;6.40;4.18;;;;;;;;;;5110949;28;20284;-77
2022/03/14 11:04:41;;;;;;;2.88;1.40;;;;;;;;;;5112789;28;20219;-78
2022/03/14 11:07:08;;;;;;;2.80;1.27;;;;;;;;;;5115194;28;20209;-78
2022/03/14 11:09:40;;;;;;;1.83;1.02;;;;;;;;;;5116274;28;20207;-78
2022/03/14 11:12:08;;;;;;;2.75;1.08;;;;;;;;;;5115977;28;20202;-78
2022/03/14 11:14:39;;;;;;;2.95;1.35;;;;;;;;;;5116047;28;20254;-77
2022/03/14 11:17:18;;;;;;;6.57;2.67;;;;;;;;;;5114358;28;20199;-78
2022/03/14 11:19:45;;;;;;;2.78;1.27;;;;;;;;;;5113866;28;20267;-78
2022/03/14 11:22:13;;;;;;;2.67;1.20;;;;;;;;;;5117876;28;20202;-77
2022/03/14 11:24:46;;;;;;;3.23;1.70;;;;;;;;;;5115903;28;20272;-80
2022/03/14 11:27:19;;;;;;;3.37;1.70;;;;;;;;;;5110073;28;20316;-77
2022/03/14 11:29:48;;;;;;;2.70;1.10;;;;;;;;;;5109250;28;20295;-77
2022/03/14 11:32:17;;;;;;;2.60;1.40;;;;;;;;;;5110167;28;20227;-77
2022/03/14 11:34:50;;;;;;;2.28;1.17;;;;;;;;;;5108555;28;20235;-76
2022/03/14 11:37:20;;;;;;;2.37;1.10;;;;;;;;;;5113890;28;20294;-76
2022/03/14 11:39:48;;;;;;;2.25;1.15;;;;;;;;;;5108211;28;20199;-77
2022/03/14 11:42:16;;;;;;;5.43;3.40;;;;;;;;;;5116167;28;20293;-77
2022/03/14 11:44:46;;;;;;;4.53;1.40;;;;;;;;;;5110955;28;20218;-77
2022/03/14 11:47:20;;;;;;;1.20;0.93;;;;;;;;;;5111613;28;20203;-77
2022/03/14 11:49:48;;;;;;;2.20;1.27;;;;;;;;;;5112162;28;20202;-76
2022/03/14 11:52:19;;;;;;;2.50;1.20;;;;;;;;;;5111775;28;20199;-76
2022/03/14 11:54:48;;;;;;;2.50;1.07;;;;;;;;;;5114289;28;20219;-76
2022/03/14 11:57:33;;;;;;;1.80;1.10;;;;;;;;;;5111206;28;20206;-76
2022/03/14 12:00:20;;;;;;;4.67;1.50;;;;;;;;;;5114082;28;20199;-76
2022/03/14 12:02:49;;;;;;;1.80;1.40;;;;;;;;;;5107702;28;20202;-76
2022/03/14 12:05:22;;;;;;;2.23;1.17;;;;;;;;;;5113558;28;20299;-78
2022/03/14 12:07:49;;;;;;;2.30;1.23;;;;;;;;;;5112341;28;20734;-76
2022/03/14 12:10:31;;;;;;;2.20;1.40;;;;;;;;;;5113730;28;20205;-76
2022/03/14 12:12:59;;;;;;;2.60;1.20;;;;;;;;;;5108370;28;20223;-76
2022/03/14 12:15:41;;;;;;;2.20;1.30;;;;;;;;;;5111602;28;20284;-76
2022/03/14 12:18:23;;;;;;;5.37;1.70;;;;;;;;;;5108942;28;20195;-76
2022/03/14 12:20:52;;;;;;;3.33;1.03;;;;;;;;;;5114139;28;20284;-76
2022/03/14 12:23:21;;;;;;;7.33;1.50;;;;;;;;;;5107197;28;20195;-76
2022/03/14 12:25:48;;;;;;;6.03;1.60;;;;;;;;;;5113771;28;20568;-78
2022/03/14 12:28:26;;;;;;;22.33;4.07;;;;;;;;;;5112096;28;20213;-76
2022/03/14 12:31:00;;;;;;;2.13;1.00;;;;;;;;;;5115047;28;20215;-75
2022/03/14 12:33:32;;;;;;;2.27;1.10;;;;;;;;;;5110065;28;20218;-75
2022/03/14 12:36:22;;;;;;;5.00;1.70;;;;;;;;;;5114836;28;20578;-75
2022/03/14 12:39:04;;;;;;;1.80;1.00;;;;;;;;;;5113599;28;20204;-75
2022/03/14 12:41:31;;;;;;;1.90;1.13;;;;;;;;;;5112364;28;20238;-74
2022/03/14 12:43:58;;;;;;;1.98;1.10;;;;;;;;;;5114114;28;20282;-75
2022/03/14 12:46:25;;;;;;;3.15;1.10;;;;;;;;;;5117288;28;20210;-75
2022/03/14 12:48:53;;;;;;;2.10;1.03;;;;;;;;;;5115252;28;20235;-75
2022/03/14 12:51:26;;;;;;;1.83;1.00;;;;;;;;;;5110965;28;20195;-75
2022/03/14 12:53:54;;;;;;;2.03;1.10;;;;;;;;;;5112338;28;20269;-77
2022/03/14 12:56:25;;;;;;;2.87;1.13;;;;;;;;;;5114164;28;20302;-77
2022/03/14 12:58:56;;;;;;;2.60;1.00;;;;;;;;;;5109986;28;20200;-76
2022/03/14 13:01:24;;;;;;;2.33;1.10;;;;;;;;;;5113172;28;20612;-82
2022/03/14 13:03:51;;;;;;;4.60;1.27;;;;;;;;;;5110175;28;20196;-77
2022/03/14 13:06:18;;;;;;;2.07;1.10;;;;;;;;;;5114011;28;20215;-77
2022/03/14 13:08:48;;;;;;;2.03;1.00;;;;;;;;;;5113483;28;20205;-77
2022/03/14 13:11:15;;;;;;;2.03;1.20;;;;;;;;;;5114394;28;20207;-77
2022/03/14 13:13:44;;;;;;;2.40;1.33;;;;;;;;;;5112687;28;20217;-77
2022/03/14 13:16:12;;;;;;;2.40;1.02;;;;;;;;;;5113795;28;20219;-77
2022/03/14 13:18:40;;;;;;;3.03;1.23;;;;;;;;;;5112862;28;20210;-77
2022/03/14 13:21:15;;;;;;;3.03;1.27;;;;;;;;;;5113810;28;20214;-79
2022/03/14 13:23:42;;;;;;;1.73;0.90;;;;;;;;;;5107481;28;20191;-77
2022/03/14 13:26:11;;;;;;;2.10;1.10;;;;;;;;;;5111304;28;20234;-78
2022/03/14 13:28:39;;;;;;;4.57;1.98;;;;;;;;;;5111312;28;20199;-78
2022/03/14 13:31:09;;;;;;;3.37;1.37;;;;;;;;;;5112759;28;20230;-77
2022/03/14 13:33:37;;;;;;;2.03;1.13;;;;;;;;;;5108456;28;20211;-75
2022/03/14 13:36:05;;;;;;;1.80;1.00;;;;;;;;;;5112436;28;20314;-77
2022/03/14 13:38:34;;;;;;;2.00;1.17;;;;;;;;;;5112792;28;20203;-77
2022/03/14 13:41:03;;;;;;;2.30;1.20;;;;;;;;;;5120719;28;20192;-77
2022/03/14 13:43:31;;;;;;;2.10;1.10;;;;;;;;;;5124299;28;20202;-79
2022/03/14 13:46:17;;;;;;;2.10;1.20;;;;;;;;;;5110506;28;20222;-79
2022/03/14 13:48:51;;;;;;;2.07;1.10;;;;;;;;;;5111767;28;20222;-79
2022/03/14 13:51:19;;;;;;;2.00;1.10;;;;;;;;;;5112615;28;20195;-79
2022/03/14 13:53:47;;;;;;;3.77;1.20;;;;;;;;;;5109366;28;20314;-79
2022/03/14 13:56:15;;;;;;;4.17;1.13;;;;;;;;;;5111485;28;20712;-79
2022/03/14 13:58:53;;;;;;;1.83;1.50;;;;;;;;;;5111141;28;20192;-79
2022/03/14 14:01:20;;;;;;;4.27;1.50;;;;;;;;;;5109213;28;20221;-79
2022/03/14 14:03:48;;;;;;;2.37;1.13;;;;;;;;;;5106031;28;20198;-79
2022/03/14 14:06:16;;;;;;;1.67;0.90;;;;;;;;;;5107558;28;20309;-79
2022/03/14 14:08:43;;;;;;;2.40;1.20;;;;;;;;;;5106778;28;20203;-79
2022/03/14 14:11:11;;;;;;;2.90;1.20;;;;;;;;;;5110557;28;20195;-79
2022/03/14 14:13:48;;;;;;;2.57;1.33;;;;;;;;;;5110793;28;20202;-77
2022/03/14 14:16:20;;;;;;;3.20;1.23;;;;;;;;;;5107076;28;20307;-77
2022/03/14 14:18:47;;;;;;;1.83;1.00;;;;;;;;;;5110363;28;20203;-77
2022/03/14 14:21:18;;;;;;;2.13;1.00;;;;;;;;;;5110984;28;20548;-77
2022/03/14 14:23:45;;;;;;;2.27;1.30;;;;;;;;;;5110815;28;20199;-77
2022/03/14 14:26:13;;;;;;;2.60;1.40;;;;;;;;;;5109881;28;20223;-79
2022/03/14 14:28:41;;;;;;;2.53;1.10;;;;;;;;;;5109784;28;20200;-77
2022/03/14 14:31:18;;;;;;;2.67;1.07;;;;;;;;;;5110426;28;20199;-77
2022/03/14 14:33:46;;;;;;;2.30;1.23;;;;;;;;;;5111299;28;20215;-77
2022/03/14 14:36:14;;;;;;;3.40;1.27;;;;;;;;;;5106925;28;20236;-78
2022/03/14 14:38:42;;;;;;;2.47;1.37;;;;;;;;;;5105593;28;20202;-77
2022/03/14 14:41:12;;;;;;;3.33;1.50;;;;;;;;;;5110250;28;20211;-77
2022/03/14 14:43:41;;;;;;;3.07;1.27;;;;;;;;;;5111158;28;20199;-78
2022/03/14 14:46:10;;;;;;;3.07;1.10;;;;;;;;;;5114673;28;20307;-78
2022/03/14 14:48:38;;;;;;;4.43;1.40;;;;;;;;;;5115136;28;20289;-77
2022/03/14 14:51:09;;;;;;;1.98;1.02;;;;;;;;;;5116026;28;20211;-77
2022/03/14 14:53:40;;;;;;;3.05;1.10;;;;;;;;;;5116502;28;20289;-78
2022/03/14 14:56:08;;;;;;;4.88;1.23;;;;;;;;;;5112227;27;20244;-78
2022/03/14 14:58:36;;;;;;;3.15;1.30;;;;;;;;;;5114951;28;20203;-79
2022/03/14 15:01:04;;;;;;;3.35;1.17;;;;;;;;;;5115819;28;20203;-78
2022/03/14 15:03:34;;;;;;;2.35;1.13;;;;;;;;;;5116838;28;20213;-78
2022/03/14 15:06:08;;;;;;;4.90;1.50;;;;;;;;;;5116496;28;20218;-80
2022/03/14 15:08:40;;;;;;;2.80;1.20;;;;;;;;;;5114726;28;20578;-78